sensor_id;sensor_type;location;lat;lon;timestamp;P1;durP1;ratioP1;P2;durP2;ratioP2
727;SDS011;347;48.780;9.158;2024-03-08T00:01:12;26.73;;;24.63;;
727;SDS011;347;48.780;9.158;2024-03-08T00:03:37;28.33;;;26.03;;
727;SDS011;347;48.780;9.158;2024-03-08T00:06:05;25.20;;;23.50;;
727;SDS011;347;48.780;9.158;2024-03-08T00:08:31;27.27;;;25.17;;
727;SDS011;347;48.780;9.158;2024-03-08T00:10:59;25.83;;;24.00;;
727;SDS011;347;48.780;9.158;2024-03-08T00:13:25;25.73;;;23.93;;
727;SDS011;347;48.780;9.158;2024-03-08T00:15:50;25.97;;;23.87;;
727;SDS011;347;48.780;9.158;2024-03-08T00:18:16;27.73;;;25.83;;
727;SDS011;347;48.780;9.158;2024-03-08T00:20:41;26.07;;;24.27;;
727;SDS011;347;48.780;9.158;2024-03-08T00:23:08;26.10;;;24.20;;
727;SDS011;347;48.780;9.158;2024-03-08T00:25:35;26.00;;;24.10;;
727;SDS011;347;48.780;9.158;2024-03-08T00:28:01;26.17;;;24.27;;
727;SDS011;347;48.780;9.158;2024-03-08T00:30:26;26.80;;;24.90;;
727;SDS011;347;48.780;9.158;2024-03-08T00:32:52;28.13;;;25.83;;
727;SDS011;347;48.780;9.158;2024-03-08T00:35:17;27.70;;;25.50;;
727;SDS011;347;48.780;9.158;2024-03-08T00:37:43;25.67;;;23.67;;
727;SDS011;347;48.780;9.158;2024-03-08T00:40:11;25.87;;;23.87;;
727;SDS011;347;48.780;9.158;2024-03-08T00:42:37;26.57;;;24.57;;
727;SDS011;347;48.780;9.158;2024-03-08T00:45:04;27.70;;;25.70;;
727;SDS011;347;48.780;9.158;2024-03-08T00:47:30;25.73;;;23.77;;
727;SDS011;347;48.780;9.158;2024-03-08T00:49:56;25.37;;;23.47;;
727;SDS011;347;48.780;9.158;2024-03-08T00:52:22;25.87;;;23.87;;
727;SDS011;347;48.780;9.158;2024-03-08T00:54:49;27.67;;;25.60;;
727;SDS011;347;48.780;9.158;2024-03-08T00:57:22;26.87;;;24.87;;
727;SDS011;347;48.780;9.158;2024-03-08T00:59:48;28.83;;;26.30;;
727;SDS011;347;48.780;9.158;2024-03-08T01:02:13;26.43;;;24.53;;
727;SDS011;347;48.780;9.158;2024-03-08T01:04:39;26.90;;;24.90;;
727;SDS011;347;48.780;9.158;2024-03-08T01:07:04;25.37;;;23.57;;
727;SDS011;347;48.780;9.158;2024-03-08T01:09:30;27.03;;;25.03;;
727;SDS011;347;48.780;9.158;2024-03-08T01:11:58;24.67;;;22.83;;
727;SDS011;347;48.780;9.158;2024-03-08T01:14:24;25.67;;;23.70;;
727;SDS011;347;48.780;9.158;2024-03-08T01:16:56;25.27;;;23.40;;
727;SDS011;347;48.780;9.158;2024-03-08T01:19:21;25.63;;;23.73;;
727;SDS011;347;48.780;9.158;2024-03-08T01:21:48;27.57;;;25.40;;
727;SDS011;347;48.780;9.158;2024-03-08T01:24:14;26.60;;;24.50;;
727;SDS011;347;48.780;9.158;2024-03-08T01:26:39;26.63;;;24.67;;
727;SDS011;347;48.780;9.158;2024-03-08T01:29:11;25.80;;;23.90;;
727;SDS011;347;48.780;9.158;2024-03-08T01:31:36;26.97;;;24.93;;
727;SDS011;347;48.780;9.158;2024-03-08T01:34:02;28.13;;;26.00;;
727;SDS011;347;48.780;9.158;2024-03-08T01:36:28;28.10;;;25.87;;
727;SDS011;347;48.780;9.158;2024-03-08T01:38:53;26.50;;;24.50;;
727;SDS011;347;48.780;9.158;2024-03-08T01:41:19;28.17;;;26.17;;
727;SDS011;347;48.780;9.158;2024-03-08T01:43:45;28.27;;;26.20;;
727;SDS011;347;48.780;9.158;2024-03-08T01:46:17;27.40;;;25.17;;
727;SDS011;347;48.780;9.158;2024-03-08T01:48:44;26.23;;;24.43;;
727;SDS011;347;48.780;9.158;2024-03-08T01:51:10;25.57;;;23.60;;
727;SDS011;347;48.780;9.158;2024-03-08T01:53:37;25.80;;;24.00;;
727;SDS011;347;48.780;9.158;2024-03-08T01:56:03;26.17;;;24.07;;
727;SDS011;347;48.780;9.158;2024-03-08T01:58:30;26.40;;;24.50;;
727;SDS011;347;48.780;9.158;2024-03-08T02:00:58;26.50;;;24.60;;
727;SDS011;347;48.780;9.158;2024-03-08T02:03:24;25.40;;;23.63;;
727;SDS011;347;48.780;9.158;2024-03-08T02:05:50;27.47;;;25.27;;
727;SDS011;347;48.780;9.158;2024-03-08T02:08:19;26.40;;;24.60;;
727;SDS011;347;48.780;9.158;2024-03-08T02:10:47;24.33;;;22.63;;
727;SDS011;347;48.780;9.158;2024-03-08T02:13:14;27.30;;;25.20;;
727;SDS011;347;48.780;9.158;2024-03-08T02:15:49;25.77;;;23.83;;
727;SDS011;347;48.780;9.158;2024-03-08T02:18:19;24.63;;;22.73;;
727;SDS011;347;48.780;9.158;2024-03-08T02:20:46;25.40;;;23.60;;
727;SDS011;347;48.780;9.158;2024-03-08T02:23:12;26.60;;;24.70;;
727;SDS011;347;48.780;9.158;2024-03-08T02:25:45;25.10;;;23.20;;
727;SDS011;347;48.780;9.158;2024-03-08T02:28:11;26.50;;;24.20;;
727;SDS011;347;48.780;9.158;2024-03-08T02:30:37;26.00;;;24.00;;
727;SDS011;347;48.780;9.158;2024-03-08T02:33:04;25.97;;;24.17;;
727;SDS011;347;48.780;9.158;2024-03-08T02:35:30;25.90;;;24.00;;
727;SDS011;347;48.780;9.158;2024-03-08T02:37:56;27.50;;;25.37;;
727;SDS011;347;48.780;9.158;2024-03-08T02:40:25;28.00;;;25.70;;
727;SDS011;347;48.780;9.158;2024-03-08T02:42:50;27.37;;;25.53;;
727;SDS011;347;48.780;9.158;2024-03-08T02:45:16;25.80;;;23.80;;
727;SDS011;347;48.780;9.158;2024-03-08T02:47:42;25.33;;;23.50;;
727;SDS011;347;48.780;9.158;2024-03-08T02:50:07;25.77;;;23.73;;
727;SDS011;347;48.780;9.158;2024-03-08T02:52:33;25.93;;;24.13;;
727;SDS011;347;48.780;9.158;2024-03-08T02:55:00;24.83;;;23.03;;
727;SDS011;347;48.780;9.158;2024-03-08T02:57:26;24.23;;;22.43;;
727;SDS011;347;48.780;9.158;2024-03-08T02:59:53;25.57;;;23.63;;
727;SDS011;347;48.780;9.158;2024-03-08T03:02:18;24.50;;;22.70;;
727;SDS011;347;48.780;9.158;2024-03-08T03:04:44;24.83;;;23.10;;
727;SDS011;347;48.780;9.158;2024-03-08T03:07:10;25.00;;;23.17;;
727;SDS011;347;48.780;9.158;2024-03-08T03:09:36;26.80;;;24.80;;
727;SDS011;347;48.780;9.158;2024-03-08T03:12:02;26.07;;;24.07;;
727;SDS011;347;48.780;9.158;2024-03-08T03:14:27;24.47;;;22.60;;
727;SDS011;347;48.780;9.158;2024-03-08T03:16:53;26.40;;;24.37;;
727;SDS011;347;48.780;9.158;2024-03-08T03:19:19;24.93;;;23.10;;
727;SDS011;347;48.780;9.158;2024-03-08T03:21:45;24.87;;;23.17;;
727;SDS011;347;48.780;9.158;2024-03-08T03:24:11;24.13;;;22.43;;
727;SDS011;347;48.780;9.158;2024-03-08T03:26:37;22.47;;;20.97;;
727;SDS011;347;48.780;9.158;2024-03-08T03:29:06;23.23;;;21.53;;
727;SDS011;347;48.780;9.158;2024-03-08T03:31:33;25.13;;;23.43;;
727;SDS011;347;48.780;9.158;2024-03-08T03:34:01;25.57;;;23.77;;
727;SDS011;347;48.780;9.158;2024-03-08T03:36:29;25.20;;;23.40;;
727;SDS011;347;48.780;9.158;2024-03-08T03:38:55;24.20;;;22.30;;
727;SDS011;347;48.780;9.158;2024-03-08T03:41:38;25.50;;;23.60;;
727;SDS011;347;48.780;9.158;2024-03-08T03:44:04;22.70;;;21.20;;
727;SDS011;347;48.780;9.158;2024-03-08T03:46:33;25.33;;;23.63;;
727;SDS011;347;48.780;9.158;2024-03-08T03:48:59;24.03;;;22.23;;
727;SDS011;347;48.780;9.158;2024-03-08T03:51:24;23.40;;;21.70;;
727;SDS011;347;48.780;9.158;2024-03-08T03:53:51;24.63;;;22.83;;
727;SDS011;347;48.780;9.158;2024-03-08T03:56:18;23.57;;;21.87;;
727;SDS011;347;48.780;9.158;2024-03-08T03:58:43;23.40;;;21.80;;
727;SDS011;347;48.780;9.158;2024-03-08T04:01:09;25.27;;;23.37;;
727;SDS011;347;48.780;9.158;2024-03-08T04:03:35;23.30;;;21.70;;
727;SDS011;347;48.780;9.158;2024-03-08T04:06:01;24.50;;;22.80;;
727;SDS011;347;48.780;9.158;2024-03-08T04:08:27;25.83;;;23.93;;
727;SDS011;347;48.780;9.158;2024-03-08T04:10:52;24.70;;;22.93;;
727;SDS011;347;48.780;9.158;2024-03-08T04:13:18;22.97;;;21.47;;
727;SDS011;347;48.780;9.158;2024-03-08T04:15:45;24.10;;;22.50;;
727;SDS011;347;48.780;9.158;2024-03-08T04:18:13;24.70;;;22.97;;
727;SDS011;347;48.780;9.158;2024-03-08T04:20:39;26.40;;;24.50;;
727;SDS011;347;48.780;9.158;2024-03-08T04:23:05;24.30;;;22.67;;
727;SDS011;347;48.780;9.158;2024-03-08T04:25:31;24.77;;;22.87;;
727;SDS011;347;48.780;9.158;2024-03-08T04:27:56;25.60;;;23.80;;
727;SDS011;347;48.780;9.158;2024-03-08T04:30:22;24.50;;;22.80;;
727;SDS011;347;48.780;9.158;2024-03-08T04:32:47;25.70;;;24.00;;
727;SDS011;347;48.780;9.158;2024-03-08T04:35:13;26.10;;;24.10;;
727;SDS011;347;48.780;9.158;2024-03-08T04:37:40;25.27;;;23.43;;
727;SDS011;347;48.780;9.158;2024-03-08T04:40:06;25.57;;;23.77;;
727;SDS011;347;48.780;9.158;2024-03-08T04:42:32;26.53;;;24.77;;
727;SDS011;347;48.780;9.158;2024-03-08T04:44:58;26.00;;;24.20;;
727;SDS011;347;48.780;9.158;2024-03-08T04:47:24;24.83;;;23.03;;
727;SDS011;347;48.780;9.158;2024-03-08T04:49:53;26.30;;;24.40;;
727;SDS011;347;48.780;9.158;2024-03-08T04:52:19;26.10;;;24.27;;
727;SDS011;347;48.780;9.158;2024-03-08T04:54:46;24.93;;;23.23;;
727;SDS011;347;48.780;9.158;2024-03-08T04:57:12;24.93;;;23.13;;
727;SDS011;347;48.780;9.158;2024-03-08T04:59:38;24.80;;;23.10;;
727;SDS011;347;48.780;9.158;2024-03-08T05:02:03;25.47;;;23.77;;
727;SDS011;347;48.780;9.158;2024-03-08T05:04:29;24.83;;;23.03;;
727;SDS011;347;48.780;9.158;2024-03-08T05:06:55;26.70;;;24.70;;
727;SDS011;347;48.780;9.158;2024-03-08T05:09:20;25.20;;;23.30;;
727;SDS011;347;48.780;9.158;2024-03-08T05:11:46;25.50;;;23.60;;
727;SDS011;347;48.780;9.158;2024-03-08T05:14:12;25.27;;;23.17;;
727;SDS011;347;48.780;9.158;2024-03-08T05:16:44;25.63;;;23.80;;
727;SDS011;347;48.780;9.158;2024-03-08T05:19:14;25.90;;;24.10;;
727;SDS011;347;48.780;9.158;2024-03-08T05:21:42;26.40;;;24.60;;
727;SDS011;347;48.780;9.158;2024-03-08T05:24:09;26.93;;;25.13;;
727;SDS011;347;48.780;9.158;2024-03-08T05:26:35;26.47;;;24.40;;
727;SDS011;347;48.780;9.158;2024-03-08T05:29:02;26.40;;;24.60;;
727;SDS011;347;48.780;9.158;2024-03-08T05:31:28;27.10;;;25.03;;
727;SDS011;347;48.780;9.158;2024-03-08T05:33:54;25.80;;;24.00;;
727;SDS011;347;48.780;9.158;2024-03-08T05:36:20;26.93;;;25.13;;
727;SDS011;347;48.780;9.158;2024-03-08T05:38:46;27.40;;;25.50;;
727;SDS011;347;48.780;9.158;2024-03-08T05:41:12;26.30;;;24.40;;
727;SDS011;347;48.780;9.158;2024-03-08T05:43:37;26.77;;;24.87;;
727;SDS011;347;48.780;9.158;2024-03-08T05:46:06;27.43;;;25.40;;
727;SDS011;347;48.780;9.158;2024-03-08T05:48:36;26.10;;;24.20;;
727;SDS011;347;48.780;9.158;2024-03-08T05:51:02;26.27;;;24.37;;
727;SDS011;347;48.780;9.158;2024-03-08T05:53:28;26.37;;;24.47;;
727;SDS011;347;48.780;9.158;2024-03-08T05:55:57;25.90;;;23.90;;
727;SDS011;347;48.780;9.158;2024-03-08T05:58:23;27.20;;;25.00;;
727;SDS011;347;48.780;9.158;2024-03-08T06:00:49;26.33;;;24.27;;
727;SDS011;347;48.780;9.158;2024-03-08T06:03:15;26.73;;;24.83;;
727;SDS011;347;48.780;9.158;2024-03-08T06:05:40;26.53;;;24.53;;
727;SDS011;347;48.780;9.158;2024-03-08T06:08:06;24.13;;;22.33;;
727;SDS011;347;48.780;9.158;2024-03-08T06:10:33;27.53;;;25.37;;
727;SDS011;347;48.780;9.158;2024-03-08T06:12:58;27.27;;;25.17;;
727;SDS011;347;48.780;9.158;2024-03-08T06:15:25;27.80;;;25.60;;
727;SDS011;347;48.780;9.158;2024-03-08T06:17:50;27.43;;;25.53;;
727;SDS011;347;48.780;9.158;2024-03-08T06:20:18;27.60;;;25.60;;
727;SDS011;347;48.780;9.158;2024-03-08T06:22:44;27.50;;;25.40;;
727;SDS011;347;48.780;9.158;2024-03-08T06:25:10;26.60;;;24.77;;
727;SDS011;347;48.780;9.158;2024-03-08T06:27:39;26.83;;;24.80;;
727;SDS011;347;48.780;9.158;2024-03-08T06:30:07;29.53;;;26.80;;
727;SDS011;347;48.780;9.158;2024-03-08T06:32:37;27.83;;;25.60;;
727;SDS011;347;48.780;9.158;2024-03-08T06:35:03;28.20;;;25.90;;
727;SDS011;347;48.780;9.158;2024-03-08T06:37:33;26.60;;;24.70;;
727;SDS011;347;48.780;9.158;2024-03-08T06:39:59;25.90;;;24.10;;
727;SDS011;347;48.780;9.158;2024-03-08T06:42:34;26.90;;;25.00;;
727;SDS011;347;48.780;9.158;2024-03-08T06:45:03;24.00;;;22.10;;
727;SDS011;347;48.780;9.158;2024-03-08T06:47:51;28.37;;;26.07;;
727;SDS011;347;48.780;9.158;2024-03-08T06:50:19;25.17;;;23.33;;
727;SDS011;347;48.780;9.158;2024-03-08T06:52:45;26.70;;;24.80;;
727;SDS011;347;48.780;9.158;2024-03-08T06:55:18;28.83;;;26.47;;
727;SDS011;347;48.780;9.158;2024-03-08T07:04:47;26.70;;;24.80;;
727;SDS011;347;48.780;9.158;2024-03-08T07:07:29;28.17;;;25.97;;
727;SDS011;347;48.780;9.158;2024-03-08T07:14:29;30.10;;;27.80;;
727;SDS011;347;48.780;9.158;2024-03-08T07:17:17;26.90;;;24.80;;
727;SDS011;347;48.780;9.158;2024-03-08T07:19:43;28.77;;;26.47;;
727;SDS011;347;48.780;9.158;2024-03-08T07:22:08;29.47;;;27.07;;
727;SDS011;347;48.780;9.158;2024-03-08T07:24:36;30.03;;;27.73;;
727;SDS011;347;48.780;9.158;2024-03-08T07:27:05;29.93;;;27.63;;
727;SDS011;347;48.780;9.158;2024-03-08T07:29:35;28.83;;;26.63;;
727;SDS011;347;48.780;9.158;2024-03-08T07:32:02;27.77;;;25.80;;
727;SDS011;347;48.780;9.158;2024-03-08T07:34:50;27.60;;;25.43;;
727;SDS011;347;48.780;9.158;2024-03-08T07:37:16;27.77;;;25.67;;
727;SDS011;347;48.780;9.158;2024-03-08T07:39:42;27.77;;;25.67;;
727;SDS011;347;48.780;9.158;2024-03-08T07:42:08;28.33;;;25.97;;
727;SDS011;347;48.780;9.158;2024-03-08T07:44:35;28.00;;;25.60;;
727;SDS011;347;48.780;9.158;2024-03-08T07:47:02;28.03;;;26.03;;
727;SDS011;347;48.780;9.158;2024-03-08T07:49:43;27.07;;;25.07;;
727;SDS011;347;48.780;9.158;2024-03-08T07:52:09;28.23;;;26.10;;
727;SDS011;347;48.780;9.158;2024-03-08T07:54:40;28.50;;;26.17;;
727;SDS011;347;48.780;9.158;2024-03-08T07:57:24;28.20;;;26.10;;
727;SDS011;347;48.780;9.158;2024-03-08T07:59:51;28.47;;;26.27;;
727;SDS011;347;48.780;9.158;2024-03-08T08:02:16;27.47;;;25.43;;
727;SDS011;347;48.780;9.158;2024-03-08T08:04:52;28.43;;;26.27;;
727;SDS011;347;48.780;9.158;2024-03-08T08:07:18;30.00;;;27.50;;
727;SDS011;347;48.780;9.158;2024-03-08T08:09:43;26.20;;;24.20;;
727;SDS011;347;48.780;9.158;2024-03-08T08:12:09;25.40;;;23.50;;
727;SDS011;347;48.780;9.158;2024-03-08T08:14:38;25.60;;;23.73;;
727;SDS011;347;48.780;9.158;2024-03-08T08:17:07;27.30;;;25.30;;
727;SDS011;347;48.780;9.158;2024-03-08T08:19:33;27.07;;;25.00;;
727;SDS011;347;48.780;9.158;2024-03-08T08:22:00;26.30;;;24.53;;
727;SDS011;347;48.780;9.158;2024-03-08T08:24:27;24.40;;;22.60;;
727;SDS011;347;48.780;9.158;2024-03-08T08:26:53;25.97;;;24.07;;
727;SDS011;347;48.780;9.158;2024-03-08T08:29:18;26.07;;;24.17;;
727;SDS011;347;48.780;9.158;2024-03-08T08:31:45;28.03;;;25.93;;
727;SDS011;347;48.780;9.158;2024-03-08T08:34:11;26.87;;;24.87;;
727;SDS011;347;48.780;9.158;2024-03-08T08:36:38;25.73;;;23.93;;
727;SDS011;347;48.780;9.158;2024-03-08T08:39:05;25.60;;;23.70;;
727;SDS011;347;48.780;9.158;2024-03-08T08:41:37;28.03;;;25.73;;
727;SDS011;347;48.780;9.158;2024-03-08T08:44:03;27.90;;;25.80;;
727;SDS011;347;48.780;9.158;2024-03-08T08:46:28;28.17;;;25.97;;
727;SDS011;347;48.780;9.158;2024-03-08T08:48:54;25.60;;;23.70;;
727;SDS011;347;48.780;9.158;2024-03-08T08:51:20;27.20;;;25.30;;
727;SDS011;347;48.780;9.158;2024-03-08T08:53:46;27.33;;;25.33;;
727;SDS011;347;48.780;9.158;2024-03-08T08:56:13;26.53;;;24.53;;
727;SDS011;347;48.780;9.158;2024-03-08T08:58:42;27.53;;;25.53;;
727;SDS011;347;48.780;9.158;2024-03-08T09:01:10;25.80;;;23.80;;
727;SDS011;347;48.780;9.158;2024-03-08T09:03:37;25.83;;;23.90;;
727;SDS011;347;48.780;9.158;2024-03-08T09:06:09;25.37;;;23.50;;
727;SDS011;347;48.780;9.158;2024-03-08T09:08:38;23.67;;;21.97;;
727;SDS011;347;48.780;9.158;2024-03-08T09:11:04;24.30;;;22.57;;
727;SDS011;347;48.780;9.158;2024-03-08T09:13:30;25.53;;;23.63;;
727;SDS011;347;48.780;9.158;2024-03-08T09:15:56;26.10;;;24.03;;
727;SDS011;347;48.780;9.158;2024-03-08T09:18:21;27.53;;;25.43;;
727;SDS011;347;48.780;9.158;2024-03-08T09:20:48;27.60;;;25.40;;
727;SDS011;347;48.780;9.158;2024-03-08T09:23:13;24.73;;;23.03;;
727;SDS011;347;48.780;9.158;2024-03-08T09:25:39;24.23;;;22.50;;
727;SDS011;347;48.780;9.158;2024-03-08T09:28:05;27.10;;;25.03;;
727;SDS011;347;48.780;9.158;2024-03-08T09:30:31;25.70;;;23.70;;
727;SDS011;347;48.780;9.158;2024-03-08T09:32:57;27.00;;;24.90;;
727;SDS011;347;48.780;9.158;2024-03-08T09:35:22;26.60;;;24.47;;
727;SDS011;347;48.780;9.158;2024-03-08T09:37:48;28.00;;;26.00;;
727;SDS011;347;48.780;9.158;2024-03-08T09:40:16;25.90;;;23.97;;
727;SDS011;347;48.780;9.158;2024-03-08T09:42:45;25.10;;;23.20;;
727;SDS011;347;48.780;9.158;2024-03-08T09:45:12;26.53;;;24.43;;
727;SDS011;347;48.780;9.158;2024-03-08T09:47:52;25.23;;;23.23;;
727;SDS011;347;48.780;9.158;2024-03-08T09:50:28;24.43;;;22.70;;
727;SDS011;347;48.780;9.158;2024-03-08T09:53:18;25.90;;;23.80;;
727;SDS011;347;48.780;9.158;2024-03-08T09:55:44;24.27;;;22.47;;
727;SDS011;347;48.780;9.158;2024-03-08T09:58:13;25.67;;;23.77;;
727;SDS011;347;48.780;9.158;2024-03-08T10:00:46;25.40;;;23.43;;
727;SDS011;347;48.780;9.158;2024-03-08T10:03:12;26.23;;;24.27;;
727;SDS011;347;48.780;9.158;2024-03-08T10:05:39;26.53;;;24.47;;
727;SDS011;347;48.780;9.158;2024-03-08T10:08:06;25.93;;;24.00;;
727;SDS011;347;48.780;9.158;2024-03-08T10:10:33;25.60;;;23.60;;
727;SDS011;347;48.780;9.158;2024-03-08T10:12:59;24.13;;;22.23;;
727;SDS011;347;48.780;9.158;2024-03-08T10:15:28;26.20;;;24.20;;
727;SDS011;347;48.780;9.158;2024-03-08T10:17:55;25.77;;;23.57;;
727;SDS011;347;48.780;9.158;2024-03-08T10:20:22;25.10;;;23.30;;
727;SDS011;347;48.780;9.158;2024-03-08T10:22:48;24.77;;;22.87;;
727;SDS011;347;48.780;9.158;2024-03-08T10:25:14;24.37;;;22.67;;
727;SDS011;347;48.780;9.158;2024-03-08T10:27:42;24.17;;;22.57;;
727;SDS011;347;48.780;9.158;2024-03-08T10:30:13;23.77;;;21.97;;
727;SDS011;347;48.780;9.158;2024-03-08T10:32:40;23.67;;;21.87;;
727;SDS011;347;48.780;9.158;2024-03-08T10:35:07;25.80;;;23.80;;
727;SDS011;347;48.780;9.158;2024-03-08T10:37:45;23.90;;;21.83;;
727;SDS011;347;48.780;9.158;2024-03-08T10:40:16;24.80;;;22.80;;
727;SDS011;347;48.780;9.158;2024-03-08T10:42:53;23.33;;;21.55;;
727;SDS011;347;48.780;9.158;2024-03-08T10:45:26;23.97;;;22.07;;
727;SDS011;347;48.780;9.158;2024-03-08T10:50:57;23.43;;;21.60;;
727;SDS011;347;48.780;9.158;2024-03-08T10:53:23;24.10;;;22.30;;
727;SDS011;347;48.780;9.158;2024-03-08T10:55:52;25.07;;;23.00;;
727;SDS011;347;48.780;9.158;2024-03-08T10:58:19;23.17;;;21.47;;
727;SDS011;347;48.780;9.158;2024-03-08T11:00:52;24.23;;;22.43;;
727;SDS011;347;48.780;9.158;2024-03-08T11:06:06;23.97;;;22.07;;
727;SDS011;347;48.780;9.158;2024-03-08T11:08:35;23.33;;;21.63;;
727;SDS011;347;48.780;9.158;2024-03-08T11:11:01;24.40;;;22.67;;
727;SDS011;347;48.780;9.158;2024-03-08T11:16:00;23.73;;;21.93;;
727;SDS011;347;48.780;9.158;2024-03-08T11:18:26;24.10;;;22.13;;
727;SDS011;347;48.780;9.158;2024-03-08T11:20:54;24.70;;;22.67;;
727;SDS011;347;48.780;9.158;2024-03-08T11:23:23;23.27;;;21.50;;
727;SDS011;347;48.780;9.158;2024-03-08T11:25:51;24.93;;;23.03;;
727;SDS011;347;48.780;9.158;2024-03-08T11:28:21;24.77;;;22.87;;
727;SDS011;347;48.780;9.158;2024-03-08T11:33:26;25.10;;;23.20;;
727;SDS011;347;48.780;9.158;2024-03-08T11:36:12;22.40;;;20.73;;
727;SDS011;347;48.780;9.158;2024-03-08T11:38:44;25.87;;;23.77;;
727;SDS011;347;48.780;9.158;2024-03-08T11:41:13;24.63;;;22.87;;
727;SDS011;347;48.780;9.158;2024-03-08T11:43:42;24.17;;;22.23;;
727;SDS011;347;48.780;9.158;2024-03-08T11:46:09;25.97;;;23.80;;
727;SDS011;347;48.780;9.158;2024-03-08T11:48:37;24.57;;;22.77;;
727;SDS011;347;48.780;9.158;2024-03-08T11:51:12;22.90;;;21.33;;
727;SDS011;347;48.780;9.158;2024-03-08T11:53:39;24.50;;;22.80;;
727;SDS011;347;48.780;9.158;2024-03-08T11:56:10;23.50;;;21.80;;
727;SDS011;347;48.780;9.158;2024-03-08T11:58:37;24.33;;;22.57;;
727;SDS011;347;48.780;9.158;2024-03-08T12:01:09;24.87;;;22.43;;
727;SDS011;347;48.780;9.158;2024-03-08T12:03:38;26.10;;;24.10;;
727;SDS011;347;48.780;9.158;2024-03-08T12:06:04;25.90;;;23.90;;
727;SDS011;347;48.780;9.158;2024-03-08T12:08:30;26.47;;;24.50;;
727;SDS011;347;48.780;9.158;2024-03-08T12:10:57;26.10;;;24.10;;
727;SDS011;347;48.780;9.158;2024-03-08T12:13:29;25.33;;;23.30;;
727;SDS011;347;48.780;9.158;2024-03-08T12:16:00;26.47;;;24.37;;
727;SDS011;347;48.780;9.158;2024-03-08T12:18:34;26.67;;;24.47;;
727;SDS011;347;48.780;9.158;2024-03-08T12:23:47;26.13;;;23.93;;
727;SDS011;347;48.780;9.158;2024-03-08T12:32:01;26.60;;;24.50;;
727;SDS011;347;48.780;9.158;2024-03-08T12:34:36;26.33;;;24.33;;
727;SDS011;347;48.780;9.158;2024-03-08T12:37:02;25.97;;;23.90;;
727;SDS011;347;48.780;9.158;2024-03-08T12:39:27;25.37;;;23.37;;
727;SDS011;347;48.780;9.158;2024-03-08T12:41:55;25.43;;;23.40;;
727;SDS011;347;48.780;9.158;2024-03-08T12:44:22;26.40;;;24.40;;
727;SDS011;347;48.780;9.158;2024-03-08T12:46:47;27.03;;;25.00;;
727;SDS011;347;48.780;9.158;2024-03-08T12:49:14;26.63;;;24.50;;
727;SDS011;347;48.780;9.158;2024-03-08T12:51:45;26.67;;;24.40;;
727;SDS011;347;48.780;9.158;2024-03-08T12:54:11;25.87;;;23.77;;
727;SDS011;347;48.780;9.158;2024-03-08T12:56:37;26.10;;;24.07;;
727;SDS011;347;48.780;9.158;2024-03-08T12:59:04;26.13;;;24.13;;
727;SDS011;347;48.780;9.158;2024-03-08T13:01:32;24.67;;;22.67;;
727;SDS011;347;48.780;9.158;2024-03-08T13:03:58;28.00;;;25.80;;
727;SDS011;347;48.780;9.158;2024-03-08T13:06:28;25.87;;;23.87;;
727;SDS011;347;48.780;9.158;2024-03-08T13:09:01;27.80;;;25.30;;
727;SDS011;347;48.780;9.158;2024-03-08T13:11:30;26.93;;;24.70;;
727;SDS011;347;48.780;9.158;2024-03-08T13:14:01;27.23;;;24.87;;
727;SDS011;347;48.780;9.158;2024-03-08T13:16:30;25.50;;;23.47;;
727;SDS011;347;48.780;9.158;2024-03-08T13:18:59;25.63;;;23.53;;
727;SDS011;347;48.780;9.158;2024-03-08T13:21:25;26.37;;;23.97;;
727;SDS011;347;48.780;9.158;2024-03-08T13:23:50;27.23;;;24.83;;
727;SDS011;347;48.780;9.158;2024-03-08T13:26:18;24.73;;;22.73;;
727;SDS011;347;48.780;9.158;2024-03-08T13:28:45;26.13;;;24.10;;
727;SDS011;347;48.780;9.158;2024-03-08T13:31:11;26.47;;;24.17;;
727;SDS011;347;48.780;9.158;2024-03-08T13:33:37;26.53;;;24.33;;
727;SDS011;347;48.780;9.158;2024-03-08T13:36:07;26.37;;;24.17;;
727;SDS011;347;48.780;9.158;2024-03-08T13:38:45;28.07;;;25.73;;
727;SDS011;347;48.780;9.158;2024-03-08T13:41:12;24.90;;;22.80;;
727;SDS011;347;48.780;9.158;2024-03-08T13:43:45;26.13;;;24.03;;
727;SDS011;347;48.780;9.158;2024-03-08T13:46:12;25.97;;;23.93;;
727;SDS011;347;48.780;9.158;2024-03-08T13:48:37;28.03;;;25.73;;
727;SDS011;347;48.780;9.158;2024-03-08T13:51:04;26.93;;;24.70;;
727;SDS011;347;48.780;9.158;2024-03-08T13:53:31;28.30;;;25.80;;
727;SDS011;347;48.780;9.158;2024-03-08T13:55:57;26.60;;;24.20;;
727;SDS011;347;48.780;9.158;2024-03-08T13:58:24;26.00;;;24.07;;
727;SDS011;347;48.780;9.158;2024-03-08T14:00:49;26.97;;;24.67;;
727;SDS011;347;48.780;9.158;2024-03-08T14:03:16;27.50;;;25.20;;
727;SDS011;347;48.780;9.158;2024-03-08T14:05:42;26.00;;;23.90;;
727;SDS011;347;48.780;9.158;2024-03-08T14:08:08;27.80;;;25.53;;
727;SDS011;347;48.780;9.158;2024-03-08T14:10:34;27.00;;;24.90;;
727;SDS011;347;48.780;9.158;2024-03-08T14:13:02;25.27;;;23.23;;
727;SDS011;347;48.780;9.158;2024-03-08T14:15:29;25.90;;;23.80;;
727;SDS011;347;48.780;9.158;2024-03-08T14:17:59;25.37;;;23.33;;
727;SDS011;347;48.780;9.158;2024-03-08T14:20:26;24.90;;;22.80;;
727;SDS011;347;48.780;9.158;2024-03-08T14:22:52;23.10;;;21.23;;
727;SDS011;347;48.780;9.158;2024-03-08T14:25:21;25.40;;;23.17;;
727;SDS011;347;48.780;9.158;2024-03-08T14:27:48;24.70;;;22.33;;
727;SDS011;347;48.780;9.158;2024-03-08T14:30:29;24.07;;;22.10;;
727;SDS011;347;48.780;9.158;2024-03-08T14:32:59;25.77;;;23.57;;
727;SDS011;347;48.780;9.158;2024-03-08T14:35:25;23.40;;;21.40;;
727;SDS011;347;48.780;9.158;2024-03-08T14:37:51;24.97;;;23.00;;
727;SDS011;347;48.780;9.158;2024-03-08T14:40:17;23.47;;;21.37;;
727;SDS011;347;48.780;9.158;2024-03-08T14:42:47;24.47;;;22.40;;
727;SDS011;347;48.780;9.158;2024-03-08T14:45:16;22.43;;;20.53;;
727;SDS011;347;48.780;9.158;2024-03-08T14:47:44;24.90;;;22.83;;
727;SDS011;347;48.780;9.158;2024-03-08T14:50:16;23.97;;;22.07;;
727;SDS011;347;48.780;9.158;2024-03-08T14:52:42;24.80;;;22.80;;
727;SDS011;347;48.780;9.158;2024-03-08T14:55:08;25.77;;;23.57;;
727;SDS011;347;48.780;9.158;2024-03-08T14:57:36;24.73;;;22.60;;
727;SDS011;347;48.780;9.158;2024-03-08T15:00:01;24.03;;;21.77;;
727;SDS011;347;48.780;9.158;2024-03-08T15:02:32;25.30;;;23.30;;
727;SDS011;347;48.780;9.158;2024-03-08T15:05:04;23.90;;;21.57;;
727;SDS011;347;48.780;9.158;2024-03-08T15:07:34;24.63;;;22.60;;
727;SDS011;347;48.780;9.158;2024-03-08T15:10:00;25.60;;;23.30;;
727;SDS011;347;48.780;9.158;2024-03-08T15:12:25;25.63;;;23.60;;
727;SDS011;347;48.780;9.158;2024-03-08T15:14:52;26.47;;;24.07;;
727;SDS011;347;48.780;9.158;2024-03-08T15:17:18;23.90;;;21.87;;
727;SDS011;347;48.780;9.158;2024-03-08T15:19:49;24.10;;;22.17;;
727;SDS011;347;48.780;9.158;2024-03-08T15:22:14;23.20;;;21.40;;
727;SDS011;347;48.780;9.158;2024-03-08T15:24:42;22.40;;;20.60;;
727;SDS011;347;48.780;9.158;2024-03-08T15:27:08;24.00;;;22.13;;
727;SDS011;347;48.780;9.158;2024-03-08T15:29:34;23.40;;;21.60;;
727;SDS011;347;48.780;9.158;2024-03-08T15:32:01;23.77;;;21.77;;
727;SDS011;347;48.780;9.158;2024-03-08T15:34:27;26.47;;;24.17;;
727;SDS011;347;48.780;9.158;2024-03-08T15:36:53;26.00;;;23.70;;
727;SDS011;347;48.780;9.158;2024-03-08T15:39:21;23.70;;;21.83;;
727;SDS011;347;48.780;9.158;2024-03-08T15:41:48;24.67;;;22.70;;
727;SDS011;347;48.780;9.158;2024-03-08T15:44:13;24.47;;;22.47;;
727;SDS011;347;48.780;9.158;2024-03-08T15:46:40;24.70;;;22.80;;
727;SDS011;347;48.780;9.158;2024-03-08T15:49:06;24.67;;;22.70;;